createdAt,value
2019-01-26T00:02:14.002Z,6.80
2019-01-26T00:04:43.690Z,6.40
2019-01-26T00:07:13.494Z,6.37
2019-01-26T00:09:43.377Z,7.10
2019-01-26T00:12:13.571Z,5.70
2019-01-26T00:14:43.466Z,5.57
2019-01-26T00:17:13.525Z,5.97
2019-01-26T00:19:43.250Z,5.30
2019-01-26T00:22:13.255Z,5.00
2019-01-26T00:24:43.036Z,5.33
2019-01-26T00:27:13.021Z,4.60
2019-01-26T00:29:44.258Z,4.87
2019-01-26T00:32:15.036Z,4.67
2019-01-26T00:34:44.875Z,4.93
2019-01-26T00:37:14.569Z,4.37
2019-01-26T00:39:45.133Z,4.97
2019-01-26T00:42:15.239Z,5.47
2019-01-26T00:44:45.310Z,5.00
2019-01-26T00:47:18.293Z,5.00
2019-01-26T00:49:47.983Z,4.77
2019-01-26T00:52:18.242Z,4.40
2019-01-26T00:54:50.553Z,4.97
2019-01-26T00:57:20.443Z,4.63
2019-01-26T00:59:50.254Z,4.43
2019-01-26T01:02:20.199Z,4.57
2019-01-26T01:04:50.047Z,4.77
2019-01-26T01:07:20.041Z,4.57
2019-01-26T01:09:55.963Z,4.70
2019-01-26T01:12:25.950Z,5.13
2019-01-26T01:14:55.634Z,4.67
2019-01-26T01:17:25.370Z,5.30
2019-01-26T01:19:55.605Z,5.20
2019-01-26T01:22:25.622Z,5.37
2019-01-26T01:24:55.670Z,5.37
2019-01-26T01:27:25.696Z,4.90
2019-01-26T01:29:55.385Z,5.53
2019-01-26T01:32:25.330Z,4.80
2019-01-26T01:34:55.460Z,4.83
2019-01-26T01:37:25.836Z,4.90
2019-01-26T01:39:55.733Z,4.97
2019-01-26T01:42:25.653Z,5.27
2019-01-26T01:44:55.506Z,5.30
2019-01-26T01:47:25.366Z,5.70
2019-01-26T01:49:55.217Z,5.10
2019-01-26T01:52:24.896Z,4.60
2019-01-26T01:54:54.666Z,4.80
2019-01-26T01:57:24.567Z,4.70
2019-01-26T01:59:54.269Z,5.90
2019-01-26T02:02:24.394Z,5.23
2019-01-26T02:04:54.088Z,7.00
2019-01-26T02:07:23.801Z,6.43
2019-01-26T02:09:53.790Z,5.00
2019-01-26T02:12:23.560Z,6.30
2019-01-26T02:14:53.505Z,4.43
2019-01-26T02:17:23.268Z,5.67
2019-01-26T02:19:53.279Z,5.60
2019-01-26T02:22:28.862Z,5.93
2019-01-26T02:24:58.631Z,5.20
2019-01-26T02:27:28.512Z,4.60
2019-01-26T02:29:58.258Z,5.70
2019-01-26T02:32:28.053Z,4.80
2019-01-26T02:34:58.075Z,4.30
2019-01-26T02:37:27.909Z,4.87
2019-01-26T02:39:57.788Z,5.30
2019-01-26T02:42:28.023Z,4.93
2019-01-26T02:44:58.135Z,3.87
2019-01-26T02:47:29.462Z,3.73
2019-01-26T02:49:59.445Z,3.83
2019-01-26T02:52:29.210Z,4.63
2019-01-26T02:54:58.901Z,4.23
2019-01-26T02:57:28.806Z,4.17
2019-01-26T02:59:58.566Z,4.23
2019-01-26T03:02:28.936Z,4.47
2019-01-26T03:04:58.686Z,4.13
2019-01-26T03:07:28.508Z,3.10
2019-01-26T03:10:00.021Z,3.23
2019-01-26T03:12:30.013Z,4.60
2019-01-26T03:14:59.994Z,3.57
2019-01-26T03:17:29.890Z,4.30
2019-01-26T03:19:59.771Z,3.83
2019-01-26T03:22:29.707Z,3.50
2019-01-26T03:24:59.818Z,3.73
2019-01-26T03:27:29.489Z,4.20
2019-01-26T03:29:59.389Z,3.90
2019-01-26T03:32:31.821Z,4.07
2019-01-26T03:35:01.650Z,3.63
2019-01-26T03:37:31.477Z,3.93
2019-01-26T03:40:01.579Z,4.10
2019-01-26T03:42:31.478Z,4.23
2019-01-26T03:45:01.421Z,3.63
2019-01-26T03:47:31.189Z,3.53
2019-01-26T03:50:00.910Z,3.67
2019-01-26T03:52:30.899Z,3.50
2019-01-26T03:55:00.753Z,3.80
2019-01-26T03:57:30.507Z,3.70
2019-01-26T04:00:00.499Z,3.73
2019-01-26T04:02:30.587Z,3.10
2019-01-26T04:05:00.513Z,3.83
2019-01-26T04:07:33.365Z,3.57
2019-01-26T04:10:06.510Z,3.63
2019-01-26T04:12:36.523Z,3.53
2019-01-26T04:15:07.947Z,3.53
2019-01-26T04:17:37.814Z,3.60
2019-01-26T04:20:10.763Z,3.70
2019-01-26T04:22:40.685Z,3.73
2019-01-26T04:25:10.673Z,3.47
2019-01-26T04:27:40.486Z,3.70
2019-01-26T04:30:12.995Z,3.70
2019-01-26T04:32:42.714Z,3.53
2019-01-26T04:35:12.666Z,3.97
2019-01-26T04:37:42.502Z,3.67
2019-01-26T04:40:16.609Z,3.40
2019-01-26T04:42:46.545Z,3.93
2019-01-26T04:45:22.219Z,3.50
2019-01-26T04:47:52.286Z,3.67
2019-01-26T04:50:22.464Z,3.07
2019-01-26T04:52:52.406Z,3.50
2019-01-26T04:55:22.518Z,4.80
2019-01-26T04:57:52.291Z,3.73
2019-01-26T05:00:24.330Z,3.50
2019-01-26T05:02:54.131Z,3.30
2019-01-26T05:05:23.984Z,3.70
2019-01-26T05:07:53.675Z,3.27
2019-01-26T05:10:23.500Z,3.03
2019-01-26T05:12:53.542Z,3.30
2019-01-26T05:15:23.281Z,3.10
2019-01-26T05:17:53.247Z,2.97
2019-01-26T05:20:26.367Z,3.00
2019-01-26T05:22:56.402Z,3.27
2019-01-26T05:25:26.118Z,3.10
2019-01-26T05:27:55.871Z,2.67
2019-01-26T05:30:27.803Z,3.10
2019-01-26T05:32:57.867Z,2.93
2019-01-26T05:35:28.040Z,2.70
2019-01-26T05:37:58.368Z,2.50
2019-01-26T05:40:28.143Z,2.60
2019-01-26T05:42:57.828Z,2.47
2019-01-26T05:45:28.878Z,2.50
2019-01-26T05:47:58.598Z,2.70
2019-01-26T05:50:28.687Z,2.60
2019-01-26T05:52:58.543Z,2.80
2019-01-26T05:55:28.847Z,2.50
2019-01-26T05:57:58.673Z,2.80
2019-01-26T06:00:37.336Z,2.80
2019-01-26T06:03:07.214Z,3.00
2019-01-26T06:05:37.225Z,2.77
2019-01-26T06:08:06.979Z,2.40
2019-01-26T06:10:36.962Z,2.77
2019-01-26T06:13:06.886Z,2.60
2019-01-26T06:15:36.568Z,3.00
2019-01-26T06:18:07.134Z,2.70
2019-01-26T06:20:37.214Z,2.70
2019-01-26T06:23:06.982Z,3.07
2019-01-26T06:25:36.665Z,2.90
2019-01-26T06:28:06.564Z,4.00
2019-01-26T06:30:36.462Z,4.50
2019-01-26T06:33:06.279Z,2.90
2019-01-26T06:35:35.961Z,2.77
2019-01-26T06:38:05.805Z,3.10
2019-01-26T06:40:35.519Z,3.30
2019-01-26T06:43:05.298Z,3.27
2019-01-26T06:45:35.057Z,2.83
2019-01-26T06:48:05.098Z,3.23
2019-01-26T06:50:37.957Z,5.03
2019-01-26T06:53:07.634Z,5.00
2019-01-26T06:55:37.775Z,4.03
2019-01-26T06:58:07.469Z,4.00
2019-01-26T07:00:37.602Z,3.90
2019-01-26T07:03:07.378Z,6.57
2019-01-26T07:05:46.622Z,3.73
2019-01-26T07:08:18.533Z,3.80
2019-01-26T07:10:48.394Z,3.53
2019-01-26T07:13:18.440Z,4.20
2019-01-26T07:15:48.338Z,3.60
2019-01-26T07:18:18.090Z,3.03
2019-01-26T07:20:48.070Z,2.80
2019-01-26T07:23:18.110Z,2.90
2019-01-26T07:25:47.949Z,3.30
2019-01-26T07:28:17.699Z,3.10
2019-01-26T07:30:47.550Z,2.80
2019-01-26T07:33:17.370Z,3.23
2019-01-26T07:35:47.403Z,3.00
2019-01-26T07:38:17.270Z,3.77
2019-01-26T07:40:47.009Z,3.20
2019-01-26T07:43:16.713Z,3.90
2019-01-26T07:45:46.527Z,2.63
2019-01-26T07:48:16.866Z,3.27
2019-01-26T07:50:47.207Z,2.87
2019-01-26T07:53:17.170Z,3.10
2019-01-26T07:55:47.150Z,3.47
2019-01-26T07:58:16.897Z,2.80
2019-01-26T08:00:46.593Z,3.33
2019-01-26T08:03:16.338Z,3.03
2019-01-26T08:05:46.529Z,3.10
2019-01-26T08:08:16.326Z,4.43
2019-01-26T08:10:46.325Z,3.60
2019-01-26T08:13:16.038Z,3.30
2019-01-26T08:15:45.973Z,3.57
2019-01-26T08:18:15.657Z,3.87
2019-01-26T08:20:45.350Z,3.60
2019-01-26T08:23:15.051Z,3.60
2019-01-26T08:25:45.071Z,3.83
2019-01-26T08:28:15.205Z,2.60
2019-01-26T08:30:45.442Z,3.60
2019-01-26T08:33:15.215Z,3.70
2019-01-26T08:35:45.271Z,3.47
2019-01-26T08:38:15.009Z,3.13
2019-01-26T08:40:44.701Z,2.90
2019-01-26T08:43:14.814Z,2.70
2019-01-26T08:45:44.737Z,2.83
2019-01-26T08:48:14.849Z,3.07
2019-01-26T08:50:44.623Z,2.10
2019-01-26T08:53:14.659Z,2.40
2019-01-26T08:55:44.849Z,2.70
2019-01-26T08:58:14.542Z,2.27
2019-01-26T09:00:44.527Z,1.97
2019-01-26T09:03:48.600Z,3.73
2019-01-26T09:06:26.847Z,2.90
2019-01-26T09:08:56.697Z,2.60
2019-01-26T09:11:26.773Z,2.50
2019-01-26T09:13:56.577Z,3.30
2019-01-26T09:16:26.405Z,2.40
2019-01-26T09:18:56.097Z,2.30
2019-01-26T09:21:26.122Z,2.37
2019-01-26T09:23:55.927Z,3.00
2019-01-26T09:26:25.798Z,2.63
2019-01-26T09:28:55.533Z,2.20
2019-01-26T09:31:25.298Z,2.77
2019-01-26T09:33:55.154Z,2.70
2019-01-26T09:36:25.083Z,2.90
2019-01-26T09:38:54.942Z,2.57
2019-01-26T09:41:24.778Z,4.43
2019-01-26T09:43:54.958Z,4.20
2019-01-26T09:46:24.660Z,5.13
2019-01-26T09:48:54.491Z,3.57
2019-01-26T09:51:24.294Z,3.67
2019-01-26T09:53:57.040Z,3.83
2019-01-26T09:56:26.833Z,3.90
2019-01-26T09:58:56.535Z,4.07
2019-01-26T10:01:26.270Z,3.50
2019-01-26T10:03:56.270Z,4.20
2019-01-26T10:06:26.014Z,4.53
2019-01-26T10:08:55.962Z,4.23
2019-01-26T10:11:25.859Z,4.80
2019-01-26T10:13:55.903Z,4.90
2019-01-26T10:16:25.754Z,5.00
2019-01-26T10:18:55.726Z,5.60
2019-01-26T10:21:25.596Z,5.87
2019-01-26T10:23:55.298Z,5.60
2019-01-26T10:26:25.105Z,5.60
2019-01-26T10:28:55.842Z,6.33
2019-01-26T10:31:26.092Z,7.57
2019-01-26T10:33:55.856Z,4.80
2019-01-26T10:36:30.897Z,7.43
2019-01-26T10:39:07.979Z,6.87
2019-01-26T10:41:49.717Z,6.77
2019-01-26T10:44:30.149Z,5.43
2019-01-26T10:47:00.002Z,4.87
2019-01-26T10:49:29.801Z,4.03
2019-01-26T10:51:59.913Z,3.30
2019-01-26T10:54:30.226Z,3.90
2019-01-26T10:57:00.085Z,4.03
2019-01-26T10:59:30.170Z,3.80
2019-01-26T11:02:00.381Z,4.23
2019-01-26T11:04:30.458Z,4.40
2019-01-26T11:07:00.241Z,6.83
2019-01-26T11:09:30.510Z,5.87
2019-01-26T11:12:00.408Z,8.90
2019-01-26T11:14:30.520Z,5.97
2019-01-26T11:17:00.557Z,6.63
2019-01-26T11:19:30.327Z,4.93
2019-01-26T11:22:00.260Z,7.43
2019-01-26T11:24:30.677Z,5.67
2019-01-26T11:27:00.396Z,4.93
2019-01-26T11:29:30.142Z,3.83
2019-01-26T11:31:59.926Z,3.83
2019-01-26T11:34:29.799Z,3.17
2019-01-26T11:36:59.562Z,3.73
2019-01-26T11:39:29.297Z,3.30
2019-01-26T11:41:59.063Z,3.50
2019-01-26T11:44:29.538Z,3.63
2019-01-26T11:47:01.939Z,4.20
2019-01-26T11:49:31.619Z,3.00
2019-01-26T11:52:09.781Z,3.10
2019-01-26T11:54:56.326Z,3.00
2019-01-26T11:57:28.150Z,3.93
2019-01-26T12:00:27.050Z,4.50
2019-01-26T12:03:05.602Z,4.67
2019-01-26T12:05:40.413Z,3.97
2019-01-26T12:08:10.358Z,4.33
2019-01-26T12:10:40.685Z,6.27
2019-01-26T12:13:10.829Z,7.43
2019-01-26T12:15:41.019Z,14.60
2019-01-26T12:18:10.716Z,7.57
2019-01-26T12:20:40.705Z,5.93
2019-01-26T12:23:10.726Z,5.47
2019-01-26T12:25:40.657Z,3.80
2019-01-26T12:28:10.493Z,4.40
2019-01-26T12:30:40.334Z,4.13
2019-01-26T12:33:10.054Z,3.37
2019-01-26T12:35:39.743Z,6.20
2019-01-26T12:38:09.839Z,4.57
2019-01-26T12:40:39.685Z,3.07
2019-01-26T12:43:09.695Z,4.17
2019-01-26T12:45:40.632Z,3.30
2019-01-26T12:48:10.857Z,3.13
2019-01-26T12:50:41.101Z,3.10
2019-01-26T12:53:10.955Z,2.37
2019-01-26T12:55:41.017Z,2.53
2019-01-26T12:58:10.870Z,2.80
2019-01-26T13:00:40.626Z,2.70
2019-01-26T13:03:10.678Z,2.57
2019-01-26T13:05:40.426Z,2.93
2019-01-26T13:08:10.852Z,2.60
2019-01-26T13:10:44.334Z,3.90
2019-01-26T13:13:14.186Z,6.23
2019-01-26T13:15:44.011Z,6.87
2019-01-26T13:18:14.101Z,5.37
2019-01-26T13:20:43.861Z,5.87
2019-01-26T13:23:13.894Z,4.60
2019-01-26T13:25:43.565Z,5.63
2019-01-26T13:28:13.413Z,15.33
2019-01-26T13:30:43.256Z,11.50
2019-01-26T13:33:13.270Z,2.73
2019-01-26T13:35:42.950Z,2.40
2019-01-26T13:38:12.795Z,2.67
2019-01-26T13:40:42.535Z,2.67
2019-01-26T13:43:12.690Z,3.03
2019-01-26T13:45:46.057Z,2.50
2019-01-26T13:48:15.979Z,2.70
2019-01-26T13:50:45.747Z,3.07
2019-01-26T13:53:15.513Z,6.63
2019-01-26T13:55:45.549Z,3.70
2019-01-26T13:58:15.391Z,3.67
2019-01-26T14:00:45.185Z,3.90
2019-01-26T14:03:15.302Z,3.37
2019-01-26T14:05:45.077Z,3.37
2019-01-26T14:08:14.787Z,5.77
2019-01-26T14:10:44.529Z,3.60
2019-01-26T14:13:14.547Z,3.20
2019-01-26T14:15:44.674Z,3.43
2019-01-26T14:18:14.577Z,2.50
2019-01-26T14:20:44.383Z,3.10
2019-01-26T14:23:14.426Z,2.80
2019-01-26T14:25:44.306Z,2.83
2019-01-26T14:28:14.275Z,3.83
2019-01-26T14:30:50.829Z,2.40
2019-01-26T14:33:20.527Z,4.03
2019-01-26T14:35:50.390Z,3.10
2019-01-26T14:38:20.289Z,5.93
2019-01-26T14:40:50.080Z,3.80
2019-01-26T14:43:20.075Z,3.07
2019-01-26T14:45:49.950Z,3.17
2019-01-26T14:48:19.653Z,2.60
2019-01-26T14:50:49.357Z,2.50
2019-01-26T14:53:21.987Z,2.40
2019-01-26T14:55:52.010Z,2.50
2019-01-26T14:58:22.132Z,2.50
2019-01-26T15:00:52.310Z,2.50
2019-01-26T15:03:22.238Z,2.40
2019-01-26T15:05:52.534Z,2.60
2019-01-26T15:08:22.375Z,2.40
2019-01-26T15:10:52.580Z,2.80
2019-01-26T15:13:22.332Z,2.80
2019-01-26T15:15:52.111Z,2.80
2019-01-26T15:18:22.163Z,3.13
2019-01-26T15:20:51.946Z,2.80
2019-01-26T15:23:21.780Z,2.80
2019-01-26T15:25:52.446Z,2.60
2019-01-26T15:28:22.489Z,2.70
2019-01-26T15:30:52.725Z,3.00
2019-01-26T15:33:22.573Z,3.20
2019-01-26T15:35:52.668Z,2.93
2019-01-26T15:38:22.677Z,3.20
2019-01-26T15:40:52.681Z,3.43
2019-01-26T15:43:22.525Z,3.50
2019-01-26T15:45:52.573Z,3.87
2019-01-26T15:48:23.893Z,5.80
2019-01-26T15:50:54.037Z,5.20
2019-01-26T15:53:23.853Z,5.10
2019-01-26T15:55:53.685Z,4.73
2019-01-26T15:58:23.903Z,4.70
2019-01-26T16:00:53.892Z,5.73
2019-01-26T16:03:23.574Z,5.50
2019-01-26T16:05:53.562Z,7.00
2019-01-26T16:08:23.346Z,6.90
2019-01-26T16:10:53.398Z,7.53
2019-01-26T16:13:23.477Z,4.30
2019-01-26T16:15:53.239Z,4.60
2019-01-26T16:18:23.320Z,3.90
2019-01-26T16:20:53.181Z,5.20
2019-01-26T16:23:22.865Z,3.70
2019-01-26T16:25:52.893Z,3.37
2019-01-26T16:28:22.686Z,2.67
2019-01-26T16:30:52.405Z,5.53
2019-01-26T16:33:22.429Z,5.53
2019-01-26T16:35:52.535Z,3.57
2019-01-26T16:38:22.251Z,4.20
2019-01-26T16:40:52.085Z,3.80
2019-01-26T16:43:22.280Z,3.40
2019-01-26T16:45:55.337Z,4.23
2019-01-26T16:48:25.210Z,4.43
2019-01-26T16:50:54.991Z,4.37
2019-01-26T16:53:25.130Z,5.73
2019-01-26T16:55:55.012Z,5.80
2019-01-26T16:58:24.735Z,6.93
2019-01-26T17:00:56.977Z,4.77
2019-01-26T17:03:26.821Z,5.13
2019-01-26T17:05:56.612Z,5.67
2019-01-26T17:08:26.293Z,5.93
2019-01-26T17:10:56.176Z,6.13
2019-01-26T17:13:25.985Z,6.20
2019-01-26T17:15:55.766Z,5.10
2019-01-26T17:18:25.890Z,4.90
2019-01-26T17:20:55.775Z,6.63
2019-01-26T17:23:25.959Z,6.70
2019-01-26T17:25:55.646Z,6.73
2019-01-26T17:28:25.594Z,7.53
2019-01-26T17:30:55.400Z,7.60
2019-01-26T17:33:25.119Z,9.20
2019-01-26T17:35:54.981Z,8.40
2019-01-26T17:38:24.750Z,8.27
2019-01-26T17:40:55.001Z,8.77
2019-01-26T17:43:25.033Z,8.00
2019-01-26T17:45:54.747Z,5.67
2019-01-26T17:48:24.433Z,6.40
2019-01-26T17:50:54.243Z,5.20
2019-01-26T17:53:24.069Z,5.50
2019-01-26T17:55:53.860Z,5.40
2019-01-26T17:58:23.566Z,5.73
2019-01-26T18:00:58.082Z,5.47
2019-01-26T18:03:28.036Z,5.33
2019-01-26T18:05:57.805Z,5.37
2019-01-26T18:08:28.258Z,5.20
2019-01-26T18:10:58.092Z,4.47
2019-01-26T18:13:28.034Z,4.23
2019-01-26T18:15:57.893Z,2.57
2019-01-26T18:18:29.610Z,4.30
2019-01-26T18:20:59.303Z,3.03
2019-01-26T18:23:30.950Z,2.50
2019-01-26T18:26:03.850Z,2.37
2019-01-26T18:28:34.203Z,2.00
2019-01-26T18:31:03.974Z,2.63
2019-01-26T18:33:33.996Z,2.87
2019-01-26T18:36:04.194Z,3.53
2019-01-26T18:38:33.885Z,3.30
2019-01-26T18:41:03.614Z,3.37
2019-01-26T18:43:33.812Z,2.80
2019-01-26T18:46:05.025Z,2.97
2019-01-26T18:48:35.007Z,3.20
2019-01-26T18:51:05.286Z,2.93
2019-01-26T18:53:34.962Z,3.50
2019-01-26T18:56:04.830Z,2.70
2019-01-26T18:58:34.676Z,3.30
2019-01-26T19:01:05.151Z,6.07
2019-01-26T19:03:59.892Z,6.43
2019-01-26T19:06:29.678Z,4.50
2019-01-26T19:09:00.738Z,3.67
2019-01-26T19:11:30.523Z,3.90
2019-01-26T19:14:00.721Z,3.20
2019-01-26T19:16:31.061Z,2.90
2019-01-26T19:19:00.803Z,2.60
2019-01-26T19:21:30.497Z,3.80
2019-01-26T19:24:00.463Z,3.30
2019-01-26T19:26:30.289Z,2.73
2019-01-26T19:29:01.030Z,2.20
2019-01-26T19:31:30.927Z,1.30
2019-01-26T19:34:00.762Z,1.30
2019-01-26T19:36:30.733Z,1.90
2019-01-26T19:39:00.988Z,1.50
2019-01-26T19:41:30.778Z,2.37
2019-01-26T19:44:00.644Z,1.70
2019-01-26T19:46:30.921Z,1.90
2019-01-26T19:49:01.109Z,1.73
2019-01-26T19:51:31.122Z,2.07
2019-01-26T19:54:00.867Z,2.03
2019-01-26T19:56:30.722Z,2.03
2019-01-26T19:59:00.542Z,2.10
2019-01-26T20:01:30.376Z,2.07
2019-01-26T20:04:00.558Z,1.83
2019-01-26T20:06:30.542Z,2.00
2019-01-26T20:09:00.827Z,1.90
2019-01-26T20:11:30.590Z,2.73
2019-01-26T20:14:00.490Z,2.40
2019-01-26T20:16:36.316Z,2.10
2019-01-26T20:19:02.049Z,1.80
2019-01-26T20:21:32.269Z,2.00
2019-01-26T20:24:02.086Z,2.10
2019-01-26T20:26:31.909Z,1.90
2019-01-26T20:29:02.151Z,2.10
2019-01-26T20:31:31.918Z,2.30
2019-01-26T20:34:02.096Z,2.30
2019-01-26T20:36:31.875Z,2.43
2019-01-26T20:39:01.710Z,2.87
2019-01-26T20:41:31.659Z,3.10
2019-01-26T20:44:01.686Z,2.77
2019-01-26T20:46:31.766Z,2.27
2019-01-26T20:49:01.630Z,2.53
2019-01-26T20:51:31.489Z,2.27
2019-01-26T20:54:01.261Z,2.03
2019-01-26T20:56:31.260Z,3.47
2019-01-26T20:59:01.674Z,4.03
2019-01-26T21:01:31.358Z,4.30
2019-01-26T21:04:01.303Z,4.40
2019-01-26T21:06:31.364Z,7.10
2019-01-26T21:09:01.773Z,2.10
2019-01-26T21:11:31.444Z,3.47
2019-01-26T21:14:01.515Z,6.03
2019-01-26T21:16:31.513Z,7.73
2019-01-26T21:19:01.456Z,7.50
2019-01-26T21:21:31.960Z,5.93
2019-01-26T21:24:02.034Z,6.33
2019-01-26T21:26:31.866Z,11.90
2019-01-26T21:29:01.656Z,7.00
2019-01-26T21:31:31.771Z,4.97
2019-01-26T21:34:01.713Z,7.00
2019-01-26T21:36:34.570Z,5.60
2019-01-26T21:39:08.775Z,4.83
2019-01-26T21:41:38.958Z,3.70
2019-01-26T21:44:09.289Z,3.10
2019-01-26T21:46:39.047Z,3.17
2019-01-26T21:49:09.036Z,2.30
2019-01-26T21:51:39.261Z,2.80
2019-01-26T21:54:09.271Z,3.10
2019-01-26T21:56:38.995Z,3.30
2019-01-26T21:59:08.943Z,3.73
2019-01-26T22:01:39.181Z,2.30
2019-01-26T22:04:09.332Z,2.83
2019-01-26T22:06:39.150Z,2.47
2019-01-26T22:09:09.769Z,2.10
2019-01-26T22:11:39.547Z,2.63
2019-01-26T22:14:09.782Z,2.10
2019-01-26T22:16:41.506Z,2.30
2019-01-26T22:19:11.650Z,3.10
2019-01-26T22:21:46.088Z,3.67
2019-01-26T22:24:14.037Z,2.50
2019-01-26T22:26:43.884Z,2.23
2019-01-26T22:29:13.685Z,2.30
2019-01-26T22:31:45.746Z,2.40
2019-01-26T22:34:17.186Z,4.17
2019-01-26T22:36:49.945Z,3.90
2019-01-26T22:39:21.618Z,2.37
2019-01-26T22:41:51.599Z,3.53
2019-01-26T22:44:21.688Z,3.10
2019-01-26T22:46:51.477Z,3.37
2019-01-26T22:49:21.438Z,2.87
2019-01-26T22:51:53.367Z,2.97
2019-01-26T22:54:23.129Z,4.27
2019-01-26T22:56:53.179Z,3.13
2019-01-26T22:59:25.725Z,3.30
2019-01-26T23:01:55.887Z,2.93
2019-01-26T23:05:16.410Z,4.53
2019-01-26T23:07:59.242Z,2.20
2019-01-26T23:10:51.037Z,4.77
2019-01-26T23:14:15.637Z,2.10
2019-01-26T23:17:13.630Z,1.60
2019-01-26T23:19:48.810Z,1.40
2019-01-26T23:22:44.192Z,1.90
2019-01-26T23:25:31.962Z,1.70
2019-01-26T23:28:28.496Z,1.90
2019-01-26T23:31:16.130Z,2.13
2019-01-26T23:33:47.671Z,1.77
2019-01-26T23:36:17.596Z,2.70
2019-01-26T23:38:50.514Z,2.07
2019-01-26T23:41:20.657Z,2.10
2019-01-26T23:43:50.442Z,2.17
2019-01-26T23:46:20.466Z,2.90
2019-01-26T23:48:52.431Z,2.20
2019-01-26T23:51:24.286Z,2.87
2019-01-26T23:53:54.159Z,4.07
2019-01-26T23:56:23.965Z,4.17
2019-01-26T23:58:53.652Z,4.27
